Time;durP1;ratioP1;P1;durP2;ratioP2;P2;SDS_P1;SDS_P2;PMS_P1;PMS_P2;Temp;Humidity;BMP_temperature;BMP_pressure;BME280_temperature;BME280_humidity;BME280_pressure;Samples;Min_cycle;Max_cycle;Signal;HPM_P1;HPM_P2
2021/04/10 00:00:07;;;;;;;55.83;20.10;;;5.60;99.90;;;;;;8326403;28;20075;-69
2021/04/10 00:04:11;;;;;;;56.17;20.08;;;5.40;99.90;;;;;;8324724;28;20056;-70
2021/04/10 00:08:12;;;;;;;56.58;20.17;;;5.10;99.90;;;;;;8323189;28;20033;-70
2021/04/10 00:12:13;;;;;;;56.28;20.42;;;5.40;99.90;;;;;;8323024;28;20487;-70
2021/04/10 00:16:13;;;;;;;56.22;20.20;;;5.30;99.90;;;;;;8324284;28;20034;-69
2021/04/10 00:20:19;;;;;;;56.25;20.00;;;5.20;99.90;;;;;;8324001;28;20087;-70
2021/04/10 00:24:19;;;;;;;56.15;20.08;;;5.00;99.90;;;;;;8323973;28;20014;-69
2021/04/10 00:28:20;;;;;;;57.42;20.50;;;4.80;99.90;;;;;;8323811;28;20518;-70
2021/04/10 00:32:20;;;;;;;56.50;20.38;;;4.90;99.90;;;;;;8327566;28;20484;-70
2021/04/10 00:36:21;;;;;;;56.05;19.73;;;5.20;99.90;;;;;;8329430;28;20057;-69
2021/04/10 00:40:22;;;;;;;55.55;19.85;;;5.40;99.90;;;;;;8304468;28;20030;-69
2021/04/10 00:44:22;;;;;;;55.42;19.70;;;5.60;99.90;;;;;;8299389;28;20127;-69
2021/04/10 00:48:23;;;;;;;55.42;19.88;;;5.50;99.90;;;;;;8299193;28;20026;-70
2021/04/10 00:52:23;;;;;;;55.75;19.95;;;5.50;99.90;;;;;;8298165;28;20044;-70
2021/04/10 00:56:24;;;;;;;55.88;20.20;;;5.30;99.90;;;;;;8298490;28;20076;-69
2021/04/10 01:00:25;;;;;;;55.65;20.02;;;5.60;99.90;;;;;;8299196;28;20101;-69
2021/04/10 01:04:25;;;;;;;54.00;19.58;;;5.90;99.90;;;;;;8299272;28;20113;-71
2021/04/10 01:08:30;;;;;;;53.17;19.33;;;6.20;99.90;;;;;;8299126;28;20037;-70
2021/04/10 01:12:58;;;;;;;52.85;19.23;;;6.20;99.90;;;;;;8298615;28;20447;-69
2021/04/10 01:17:08;;;;;;;52.55;19.58;;;6.20;99.90;;;;;;8299049;28;20041;-69
2021/04/10 01:21:31;;;;;;;51.63;19.40;;;6.30;99.90;;;;;;8317805;28;20017;-69
2021/04/10 01:25:47;;;;;;;51.33;19.42;;;6.60;99.90;;;;;;8330290;28;20638;-70
2021/04/10 01:30:00;;;;;;;51.25;19.42;;;6.80;99.90;;;;;;8331416;28;20021;-70
2021/04/10 01:34:06;;;;;;;51.75;19.58;;;6.70;99.90;;;;;;8329850;28;20033;-70
2021/04/10 01:38:11;;;;;;;51.65;19.35;;;6.80;99.90;;;;;;8331044;28;20026;-70
2021/04/10 01:42:13;;;;;;;52.40;19.60;;;6.90;99.90;;;;;;8322345;28;20018;-70
2021/04/10 01:46:16;;;;;;;52.53;19.67;;;6.80;99.90;;;;;;8298210;28;20022;-69
2021/04/10 01:50:18;;;;;;;52.63;19.75;;;6.70;99.90;;;;;;8297943;28;20040;-70
2021/04/10 01:54:19;;;;;;;52.60;19.80;;;6.60;99.90;;;;;;8297792;28;20096;-69
2021/04/10 01:58:20;;;;;;;52.92;19.58;;;6.50;99.90;;;;;;8297118;28;20113;-69
2021/04/10 02:02:21;;;;;;;53.72;20.13;;;6.10;99.90;;;;;;8296054;28;20033;-69
2021/04/10 02:06:23;;;;;;;53.53;19.92;;;5.80;99.90;;;;;;8297529;28;20032;-69
2021/04/10 02:10:25;;;;;;;53.88;19.65;;;5.60;99.90;;;;;;8297274;28;20030;-70
2021/04/10 02:14:27;;;;;;;54.45;19.80;;;5.60;99.90;;;;;;8296842;28;20127;-69
2021/04/10 02:18:29;;;;;;;54.78;20.08;;;5.70;99.90;;;;;;8297178;28;20034;-69
2021/04/10 02:22:33;;;;;;;54.63;19.88;;;6.00;99.90;;;;;;8296822;28;20026;-70
2021/04/10 02:26:34;;;;;;;54.55;19.83;;;6.00;99.90;;;;;;8295642;28;20072;-69
2021/04/10 02:30:34;;;;;;;54.33;19.85;;;5.90;99.90;;;;;;8295304;28;20043;-70
2021/04/10 02:34:46;;;;;;;55.25;20.15;;;5.70;99.90;;;;;;8296556;28;20084;-69
2021/04/10 02:38:48;;;;;;;55.42;20.08;;;5.60;99.90;;;;;;8296507;28;20029;-69
2021/04/10 02:42:49;;;;;;;55.75;20.45;;;5.70;99.90;;;;;;8296115;28;20524;-69
2021/04/10 02:46:56;;;;;;;55.67;19.98;;;5.80;99.90;;;;;;8295759;28;20091;-69
2021/04/10 02:50:57;;;;;;;55.95;20.85;;;6.00;99.90;;;;;;8312380;28;20041;-69
2021/04/10 02:55:01;;;;;;;55.70;20.48;;;6.20;99.90;;;;;;8311685;28;20034;-70
2021/04/10 02:59:03;;;;;;;55.72;20.15;;;6.20;99.90;;;;;;8295522;28;20036;-69
2021/04/10 03:03:04;;;;;;;55.88;20.40;;;6.30;99.90;;;;;;8295566;28;20447;-69
2021/04/10 03:07:06;;;;;;;56.78;20.58;;;6.40;99.90;;;;;;8295647;28;20030;-69
2021/04/10 03:11:08;;;;;;;55.38;20.30;;;6.50;99.90;;;;;;8295482;28;20558;-69
2021/04/10 03:15:13;;;;;;;55.08;20.30;;;6.70;99.90;;;;;;8294090;28;20029;-69
2021/04/10 03:19:14;;;;;;;54.67;20.05;;;6.80;99.90;;;;;;8296552;28;20504;-69
2021/04/10 03:23:15;;;;;;;54.70;19.88;;;6.80;99.90;;;;;;8326375;28;20079;-69
2021/04/10 03:27:16;;;;;;;55.13;20.38;;;6.60;99.90;;;;;;8327886;28;20037;-69
2021/04/10 03:31:18;;;;;;;54.80;20.30;;;6.60;99.90;;;;;;8326528;28;20064;-69
2021/04/10 03:35:19;;;;;;;54.60;19.65;;;6.50;99.90;;;;;;8326496;28;20037;-69
2021/04/10 03:39:19;;;;;;;54.22;19.60;;;6.50;99.90;;;;;;8327527;28;20071;-69
2021/04/10 03:43:20;;;;;;;54.60;19.98;;;6.40;99.90;;;;;;8327235;28;20026;-69
2021/04/10 03:47:21;;;;;;;54.85;20.10;;;6.40;99.90;;;;;;8327074;28;20036;-69
2021/04/10 03:51:21;;;;;;;54.50;19.83;;;6.00;99.90;;;;;;8324361;28;20444;-69
2021/04/10 03:55:22;;;;;;;53.83;19.88;;;6.00;99.90;;;;;;8325676;28;20026;-70
2021/04/10 03:59:22;;;;;;;54.95;20.13;;;6.00;99.90;;;;;;8326394;28;20033;-69
2021/04/10 04:03:23;;;;;;;54.20;20.10;;;5.80;99.90;;;;;;8325377;28;20373;-69
2021/04/10 04:07:24;;;;;;;54.00;19.67;;;5.60;99.90;;;;;;8325229;28;20116;-69
2021/04/10 04:11:25;;;;;;;53.83;19.73;;;5.80;99.90;;;;;;8318660;28;20037;-69
2021/04/10 04:15:26;;;;;;;53.28;19.55;;;6.30;99.90;;;;;;8293985;28;20038;-69
2021/04/10 04:19:26;;;;;;;52.03;19.90;;;6.80;99.90;;;;;;8298930;28;20451;-70
2021/04/10 04:23:27;;;;;;;52.22;20.05;;;7.20;99.90;;;;;;8325251;28;20033;-69
2021/04/10 04:27:27;;;;;;;50.65;19.70;;;7.70;99.90;;;;;;8325400;28;20601;-69
2021/04/10 04:31:28;;;;;;;51.78;19.92;;;7.90;99.90;;;;;;8326233;28;20033;-69
2021/04/10 04:35:28;;;;;;;52.40;19.88;;;8.00;99.90;;;;;;8324998;28;20496;-69
2021/04/10 04:39:29;;;;;;;53.25;20.17;;;8.20;99.90;;;;;;8326370;28;20550;-69
2021/04/10 04:43:30;;;;;;;53.47;20.50;;;8.30;99.90;;;;;;8326138;28;20108;-69
2021/04/10 04:47:30;;;;;;;52.20;20.13;;;8.30;99.90;;;;;;8323349;28;20520;-69
2021/04/10 04:51:31;;;;;;;51.75;19.95;;;8.50;99.90;;;;;;8301784;28;20042;-69
2021/04/10 04:55:32;;;;;;;52.20;20.15;;;8.50;99.90;;;;;;8305877;28;20026;-69
2021/04/10 04:59:32;;;;;;;52.30;20.10;;;8.50;99.90;;;;;;8311335;28;20060;-69
2021/04/10 05:03:33;;;;;;;52.50;20.27;;;8.40;99.90;;;;;;8305444;28;20029;-69
2021/04/10 05:07:33;;;;;;;53.20;20.27;;;8.40;99.90;;;;;;8306255;28;20566;-69
2021/04/10 05:11:35;;;;;;;52.90;20.25;;;8.50;99.90;;;;;;8300510;28;20030;-69
2021/04/10 05:15:35;;;;;;;53.28;20.50;;;8.50;99.90;;;;;;8306328;28;20475;-70
2021/04/10 05:19:36;;;;;;;53.08;20.15;;;8.50;99.90;;;;;;8312744;28;20037;-69
2021/04/10 05:23:37;;;;;;;53.50;20.15;;;8.60;99.90;;;;;;8315275;28;20018;-69
2021/04/10 05:27:37;;;;;;;53.17;20.15;;;8.80;99.90;;;;;;8309255;28;20056;-69
2021/04/10 05:31:38;;;;;;;53.50;20.75;;;8.90;99.90;;;;;;8313883;28;20511;-70
2021/04/10 05:35:39;;;;;;;53.13;20.35;;;8.90;99.90;;;;;;8315240;28;20068;-69
2021/04/10 05:39:39;;;;;;;53.00;20.25;;;9.00;99.90;;;;;;8316707;28;20075;-69
2021/04/10 05:43:40;;;;;;;52.70;20.15;;;9.10;99.90;;;;;;8296391;28;20029;-69
2021/04/10 05:47:41;;;;;;;52.97;20.50;;;9.20;99.90;;;;;;8326885;28;20083;-68
2021/04/10 05:51:41;;;;;;;53.92;20.70;;;9.10;99.90;;;;;;8330606;28;20052;-68
2021/04/10 05:55:42;;;;;;;54.67;20.48;;;9.10;99.90;;;;;;8330261;28;20025;-68
2021/04/10 05:59:42;;;;;;;55.53;20.75;;;9.30;99.90;;;;;;8328761;28;20108;-68
2021/04/10 06:03:43;;;;;;;54.90;20.58;;;9.40;99.90;;;;;;8320997;28;20024;-68
2021/04/10 06:07:44;;;;;;;54.70;20.48;;;9.50;99.90;;;;;;8308341;28;20034;-68
2021/04/10 06:11:44;;;;;;;54.20;20.33;;;9.60;99.90;;;;;;8313290;28;20432;-68
2021/04/10 06:15:45;;;;;;;55.60;20.65;;;9.60;99.90;;;;;;8313905;28;20025;-68
2021/04/10 06:19:46;;;;;;;55.63;20.73;;;9.70;99.90;;;;;;8323657;28;20033;-69
2021/04/10 06:23:46;;;;;;;53.92;20.88;;;9.90;99.90;;;;;;8314906;28;20034;-68
2021/04/10 06:27:48;;;;;;;53.60;20.30;;;10.00;99.90;;;;;;8312379;28;20029;-69
2021/04/10 06:31:49;;;;;;;55.55;20.60;;;10.10;99.90;;;;;;8316853;28;20117;-68
2021/04/10 06:35:50;;;;;;;57.83;20.95;;;10.10;99.90;;;;;;8311244;28;20388;-68
2021/04/10 06:39:51;;;;;;;57.70;20.92;;;10.30;99.90;;;;;;8309870;28;20129;-68
2021/04/10 06:43:52;;;;;;;59.38;23.52;;;10.60;99.90;;;;;;8307146;28;20013;-70
2021/04/10 06:47:54;;;;;;;56.08;20.83;;;10.70;99.90;;;;;;8309936;28;20049;-69
2021/04/10 06:51:56;;;;;;;56.78;20.50;;;10.80;99.90;;;;;;8303062;28;20037;-66
2021/04/10 06:56:02;;;;;;;56.67;20.77;;;10.90;99.90;;;;;;8313174;28;20119;-66
2021/04/10 07:00:10;;;;;;;57.28;20.67;;;10.90;99.90;;;;;;8311680;28;20033;-67
2021/04/10 07:04:11;;;;;;;58.30;21.02;;;11.00;99.90;;;;;;8305282;28;20029;-66
2021/04/10 07:08:13;;;;;;;58.60;21.45;;;11.10;99.90;;;;;;8295436;28;20451;-66
2021/04/10 07:12:14;;;;;;;59.60;21.73;;;11.10;99.90;;;;;;8308359;28;20033;-66
2021/04/10 07:16:14;;;;;;;58.50;21.08;;;11.20;99.90;;;;;;8309486;28;20036;-66
2021/04/10 07:20:33;;;;;;;59.90;21.40;;;11.20;99.90;;;;;;8316014;28;20488;-66
2021/04/10 07:24:45;;;;;;;60.40;21.58;;;11.30;99.90;;;;;;8311976;28;20029;-68
2021/04/10 07:28:46;;;;;;;61.40;21.73;;;11.30;99.90;;;;;;8309125;28;20029;-68
2021/04/10 07:32:47;;;;;;;62.00;21.98;;;11.40;99.90;;;;;;8304873;28;20033;-69
2021/04/10 07:36:59;;;;;;;61.35;21.98;;;11.80;99.90;;;;;;8315742;28;20627;-68
2021/04/10 07:41:03;;;;;;;63.25;22.27;;;11.90;99.90;;;;;;8323460;28;20221;-68
2021/04/10 07:45:06;;;;;;;63.20;22.30;;;12.00;99.90;;;;;;8312004;28;20470;-68
2021/04/10 07:49:12;;;;;;;63.75;22.33;;;12.10;99.90;;;;;;8303897;28;20640;-68
2021/04/10 07:53:28;;;;;;;63.30;22.50;;;12.20;99.90;;;;;;8297380;28;20052;-68
2021/04/10 07:57:29;;;;;;;63.80;22.25;;;12.10;99.90;;;;;;8313670;28;20033;-68
2021/04/10 08:01:29;;;;;;;63.33;22.15;;;12.20;99.90;;;;;;8308105;28;20030;-67
2021/04/10 08:05:30;;;;;;;63.53;22.23;;;11.90;99.90;;;;;;8311658;28;20388;-68
2021/04/10 08:09:37;;;;;;;66.18;22.73;;;12.00;99.90;;;;;;8308566;28;20429;-69
2021/04/10 08:13:38;;;;;;;64.93;22.38;;;12.30;99.90;;;;;;8310004;28;20029;-68
2021/04/10 08:17:43;;;;;;;65.93;22.55;;;12.10;99.90;;;;;;8310388;28;20042;-68
2021/04/10 08:21:53;;;;;;;66.25;22.75;;;12.40;99.90;;;;;;8303691;28;20030;-68
2021/04/10 08:25:57;;;;;;;66.30;22.38;;;12.60;99.30;;;;;;8307645;28;20038;-68
2021/04/10 08:29:58;;;;;;;66.18;22.38;;;12.70;99.80;;;;;;8309432;28;20515;-68
2021/04/10 08:33:58;;;;;;;66.18;22.30;;;12.80;99.90;;;;;;8309089;28;20060;-68
2021/04/10 08:38:01;;;;;;;67.70;22.63;;;13.00;99.90;;;;;;8308812;28;20506;-69
2021/04/10 08:42:03;;;;;;;67.25;22.27;;;13.20;98.70;;;;;;8308815;28;20060;-69
2021/04/10 08:46:05;;;;;;;67.95;22.30;;;13.20;99.00;;;;;;8312898;28;20610;-69
2021/04/10 08:50:09;;;;;;;71.18;22.60;;;13.70;96.20;;;;;;8325126;28;20069;-69
2021/04/10 08:54:11;;;;;;;66.32;22.27;;;14.30;96.00;;;;;;8314851;28;20025;-69
2021/04/10 08:58:24;;;;;;;65.70;22.10;;;14.60;94.00;;;;;;8316094;28;20040;-69
2021/04/10 09:02:24;;;;;;;66.63;22.80;;;14.40;93.50;;;;;;8311297;28;20022;-69
2021/04/10 09:06:31;;;;;;;67.13;22.40;;;14.20;93.30;;;;;;8329978;28;20080;-69
2021/04/10 09:10:40;;;;;;;67.70;22.25;;;14.40;93.20;;;;;;8330366;28;20116;-68
2021/04/10 09:14:43;;;;;;;70.07;22.52;;;14.70;91.70;;;;;;8313719;28;20033;-69
2021/04/10 09:18:50;;;;;;;68.70;22.52;;;15.20;91.10;;;;;;8309134;28;20052;-68
2021/04/10 09:22:52;;;;;;;69.15;22.60;;;15.20;86.90;;;;;;8318112;28;20503;-68
2021/04/10 09:27:03;;;;;;;70.75;22.75;;;15.00;89.70;;;;;;8315295;28;20686;-68
2021/04/10 09:31:36;;;;;;;67.55;22.15;;;15.20;88.40;;;;;;8311202;28;20049;-68
2021/04/10 09:35:37;;;;;;;69.45;23.02;;;14.70;86.70;;;;;;8298422;28;20032;-68
2021/04/10 09:40:04;;;;;;;69.28;22.38;;;14.70;87.30;;;;;;8320737;28;20030;-68
2021/04/10 09:44:07;;;;;;;69.90;22.52;;;14.70;86.60;;;;;;8317437;28;20404;-69
2021/04/10 09:48:10;;;;;;;69.95;22.48;;;14.90;85.20;;;;;;8318750;28;20132;-69
2021/04/10 09:52:15;;;;;;;71.53;23.25;;;14.90;84.90;;;;;;8330051;28;20318;-69
2021/04/10 09:56:16;;;;;;;69.82;22.15;;;14.90;83.40;;;;;;8330444;28;20095;-69
2021/04/10 10:00:22;;;;;;;72.75;23.10;;;14.80;84.60;;;;;;8328603;28;20108;-69
2021/04/10 10:04:23;;;;;;;72.70;22.92;;;15.10;82.20;;;;;;8327965;28;20030;-69
2021/04/10 10:08:28;;;;;;;73.97;23.35;;;15.30;82.20;;;;;;8308115;28;20026;-69
2021/04/10 10:12:29;;;;;;;72.88;22.67;;;15.90;80.80;;;;;;8321488;28;20068;-69
2021/04/10 10:16:30;;;;;;;75.95;23.65;;;16.20;80.10;;;;;;8323439;28;20029;-69
2021/04/10 10:20:31;;;;;;;76.32;23.63;;;16.60;78.40;;;;;;8309736;28;20037;-67
2021/04/10 10:24:31;;;;;;;77.32;23.80;;;16.30;75.80;;;;;;8329334;28;20029;-67
2021/04/10 10:28:32;;;;;;;77.63;23.50;;;16.30;74.70;;;;;;8309498;28;20033;-67
2021/04/10 10:32:33;;;;;;;78.75;23.85;;;16.50;75.00;;;;;;8315705;28;20053;-66
2021/04/10 10:36:35;;;;;;;73.82;22.83;;;16.60;78.80;;;;;;8322407;28;20034;-67
2021/04/10 10:40:36;;;;;;;72.90;24.05;;;17.30;70.20;;;;;;8306884;28;20054;-67
2021/04/10 10:44:37;;;;;;;75.70;23.50;;;16.90;71.80;;;;;;8341274;28;20430;-67
2021/04/10 10:48:43;;;;;;;75.53;23.65;;;17.30;72.60;;;;;;8352639;28;20066;-67
2021/04/10 10:52:43;;;;;;;73.63;23.35;;;17.50;66.70;;;;;;8349812;28;20083;-67
2021/04/10 10:56:44;;;;;;;70.65;22.88;;;17.10;66.30;;;;;;8359946;28;20111;-66
2021/04/10 11:00:44;;;;;;;68.63;22.40;;;16.90;67.50;;;;;;8357690;28;20021;-67
2021/04/10 11:04:47;;;;;;;71.60;22.70;;;16.90;66.40;;;;;;8356265;28;20645;-68
2021/04/10 11:08:48;;;;;;;75.50;24.52;;;17.60;64.60;;;;;;8351637;28;20109;-67
2021/04/10 11:12:49;;;;;;;75.10;23.40;;;18.70;61.50;;;;;;8345754;28;20028;-67
2021/04/10 11:16:52;;;;;;;76.18;24.02;;;18.30;59.60;;;;;;8343542;28;20053;-67
2021/04/10 11:21:10;;;;;;;77.57;24.35;;;17.90;61.00;;;;;;8343099;28;20032;-68
2021/04/10 11:25:11;;;;;;;78.93;24.05;;;18.80;59.90;;;;;;8348061;28;20025;-69
2021/04/10 11:29:16;;;;;;;80.55;24.55;;;20.90;55.40;;;;;;8350123;28;20495;-68
2021/04/10 11:33:33;;;;;;;76.75;24.08;;;22.40;52.20;;;;;;8338930;28;20487;-69
2021/04/10 11:37:34;;;;;;;85.10;25.05;;;22.20;51.00;;;;;;8341141;28;20031;-69
2021/04/10 11:41:45;;;;;;;92.88;28.15;;;23.30;48.80;;;;;;8314929;28;20033;-69
2021/04/10 11:45:47;;;;;;;72.07;23.10;;;24.00;44.80;;;;;;8312748;28;20076;-69
2021/04/10 11:49:48;;;;;;;68.93;22.75;;;22.50;45.80;;;;;;8308190;28;20022;-69
2021/04/10 11:53:51;;;;;;;70.03;22.80;;;22.50;47.40;;;;;;8303526;28;20444;-69
2021/04/10 11:57:57;;;;;;;72.90;23.13;;;22.00;46.90;;;;;;8312132;28;20120;-69
2021/04/10 12:02:01;;;;;;;74.10;23.42;;;24.00;44.70;;;;;;8308738;28;20116;-70
2021/04/10 12:06:02;;;;;;;68.20;22.40;;;23.80;44.30;;;;;;8295595;28;20036;-70
2021/04/10 12:10:03;;;;;;;69.35;23.00;;;23.90;44.30;;;;;;8307267;28;20025;-71
2021/04/10 12:14:05;;;;;;;73.32;23.30;;;22.40;44.70;;;;;;8303666;28;20033;-71
2021/04/10 12:18:08;;;;;;;66.63;22.23;;;24.00;42.10;;;;;;8306910;28;20519;-71
2021/04/10 12:22:09;;;;;;;65.43;22.67;;;23.50;42.70;;;;;;8308366;28;20033;-71
2021/04/10 12:26:10;;;;;;;63.88;21.80;;;21.90;43.60;;;;;;8296906;28;20037;-70
2021/04/10 12:30:11;;;;;;;66.75;22.30;;;21.40;46.70;;;;;;8326951;28;20128;-72
2021/04/10 12:34:11;;;;;;;63.92;22.10;;;22.70;44.50;;;;;;8301118;28;20049;-71
2021/04/10 12:38:12;;;;;;;68.28;22.55;;;22.80;44.00;;;;;;8325345;28;20033;-71
2021/04/10 12:42:13;;;;;;;75.03;23.92;;;24.50;44.30;;;;;;8330912;28;20511;-71
2021/04/10 12:46:14;;;;;;;74.90;23.45;;;25.80;40.10;;;;;;8315653;28;20118;-71
2021/04/10 12:50:20;;;;;;;78.22;23.92;;;24.90;40.80;;;;;;8320960;28;20033;-70
2021/04/10 12:54:20;;;;;;;78.63;23.48;;;24.60;38.00;;;;;;8318597;28;20029;-71
2021/04/10 12:58:21;;;;;;;72.28;22.77;;;25.00;38.20;;;;;;8325760;28;20037;-71
2021/04/10 13:02:22;;;;;;;76.65;24.38;;;24.60;39.30;;;;;;8300714;28;20582;-72
2021/04/10 13:06:23;;;;;;;74.18;22.90;;;24.90;38.80;;;;;;8303983;28;20033;-71
2021/04/10 13:10:24;;;;;;;74.22;23.13;;;25.20;38.30;;;;;;8312571;28;20045;-71
2021/04/10 13:14:26;;;;;;;76.88;23.60;;;25.00;38.10;;;;;;8312451;28;20034;-71
2021/04/10 13:18:27;;;;;;;78.40;23.50;;;25.50;37.70;;;;;;8325072;28;20120;-71
2021/04/10 13:22:27;;;;;;;74.53;23.50;;;26.60;36.30;;;;;;8317770;28;20061;-72
2021/04/10 13:26:28;;;;;;;73.63;23.05;;;26.80;34.70;;;;;;8315901;28;20057;-69
2021/04/10 13:30:29;;;;;;;75.80;24.42;;;25.90;36.10;;;;;;8309468;28;20032;-70
2021/04/10 13:34:29;;;;;;;74.43;24.00;;;26.70;43.20;;;;;;8349785;28;20024;-70
2021/04/10 13:38:30;;;;;;;73.13;23.88;;;27.30;44.20;;;;;;8336799;28;20060;-70
2021/04/10 13:42:30;;;;;;;69.07;23.30;;;27.70;36.90;;;;;;8357738;28;20530;-70
2021/04/10 13:46:32;;;;;;;69.90;22.70;;;27.10;32.80;;;;;;8360798;28;20258;-70
2021/04/10 13:50:33;;;;;;;68.90;22.75;;;27.10;33.50;;;;;;8357536;28;20036;-70
2021/04/10 13:54:33;;;;;;;77.35;23.55;;;28.10;33.00;;;;;;8352571;28;20132;-70
2021/04/10 13:58:34;;;;;;;78.18;23.70;;;29.60;31.80;;;;;;8356160;28;20036;-70
2021/04/10 14:02:34;;;;;;;71.63;22.40;;;29.40;31.00;;;;;;8319765;28;20041;-70
2021/04/10 14:06:35;;;;;;;66.57;22.25;;;28.70;32.50;;;;;;8328110;28;20026;-70
2021/04/10 14:10:36;;;;;;;64.50;22.00;;;24.60;36.60;;;;;;8325877;28;20032;-70
2021/04/10 14:14:37;;;;;;;68.03;22.40;;;22.70;39.50;;;;;;8312668;28;20419;-69
2021/04/10 14:18:38;;;;;;;68.88;22.95;;;24.00;37.90;;;;;;8295266;28;20037;-69
2021/04/10 14:22:38;;;;;;;63.38;22.10;;;25.60;36.00;;;;;;8327466;28;20025;-69
2021/04/10 14:26:39;;;;;;;66.13;22.33;;;26.30;35.00;;;;;;8330237;28;20030;-69
2021/04/10 14:30:42;;;;;;;63.70;21.98;;;26.50;33.50;;;;;;8326758;28;20032;-69
2021/04/10 14:34:42;;;;;;;64.07;22.17;;;26.00;35.10;;;;;;8308781;28;20099;-69
2021/04/10 14:38:43;;;;;;;62.05;21.77;;;26.00;34.70;;;;;;8295801;28;20030;-69
2021/04/10 14:42:45;;;;;;;62.20;22.13;;;24.60;36.20;;;;;;8296492;28;20485;-69
2021/04/10 14:46:45;;;;;;;64.95;22.30;;;24.10;36.00;;;;;;8296974;28;20498;-69
2021/04/10 14:50:48;;;;;;;65.28;22.33;;;25.10;35.50;;;;;;8311844;28;20049;-69
2021/04/10 14:54:49;;;;;;;69.55;22.98;;;25.50;34.60;;;;;;8327708;28;20555;-70
2021/04/10 14:58:49;;;;;;;67.38;22.85;;;25.60;33.60;;;;;;8328912;28;20028;-69
2021/04/10 15:02:51;;;;;;;71.20;22.75;;;25.30;34.00;;;;;;8328886;28;20506;-70
2021/04/10 15:06:51;;;;;;;70.97;22.90;;;25.30;34.10;;;;;;8327719;28;20068;-69
2021/04/10 15:10:54;;;;;;;78.63;23.73;;;25.60;34.70;;;;;;8328618;28;20025;-69
2021/04/10 15:14:55;;;;;;;78.70;23.30;;;26.60;40.10;;;;;;8328395;28;20025;-69
2021/04/10 15:18:55;;;;;;;73.43;22.73;;;26.00;32.70;;;;;;8328386;28;20033;-69
2021/04/10 15:22:56;;;;;;;74.35;23.00;;;25.30;53.70;;;;;;8312593;28;20017;-69
2021/04/10 15:26:56;;;;;;;73.57;23.00;;;25.40;44.90;;;;;;8310907;28;20063;-69
2021/04/10 15:31:03;;;;;;;85.90;25.02;;;25.10;46.30;;;;;;8306898;28;20033;-69
2021/04/10 15:35:05;;;;;;;79.60;24.23;;;26.10;44.70;;;;;;8348268;28;20426;-69
2021/04/10 15:39:06;;;;;;;80.40;24.05;;;26.70;54.60;;;;;;8351966;28;20021;-69
2021/04/10 15:43:06;;;;;;;79.57;23.92;;;25.80;55.70;;;;;;8352271;28;20028;-69
2021/04/10 15:47:08;;;;;;;72.45;22.95;;;25.40;36.00;;;;;;8359864;28;20398;-69
2021/04/10 15:51:10;;;;;;;69.47;22.60;;;25.30;45.20;;;;;;8355028;28;20036;-69
2021/04/10 15:55:11;;;;;;;69.38;22.75;;;25.00;35.10;;;;;;8352914;28;20124;-69
2021/04/10 15:59:11;;;;;;;68.22;23.05;;;25.30;42.10;;;;;;8349815;28;20119;-69
2021/04/10 16:03:12;;;;;;;71.20;23.30;;;24.90;35.30;;;;;;8350385;28;20055;-69
2021/04/10 16:07:13;;;;;;;70.57;22.73;;;25.20;35.10;;;;;;8349915;28;20017;-69
2021/04/10 16:11:15;;;;;;;67.00;22.60;;;24.90;35.30;;;;;;8354947;28;20029;-69
2021/04/10 16:15:15;;;;;;;68.07;22.40;;;24.10;36.00;;;;;;8356984;28;20606;-69
2021/04/10 16:19:16;;;;;;;69.50;23.02;;;22.90;37.50;;;;;;8352759;28;20041;-69
2021/04/10 16:23:19;;;;;;;67.32;22.90;;;22.70;37.90;;;;;;8330993;28;20026;-69
2021/04/10 16:27:19;;;;;;;71.10;23.00;;;22.60;39.00;;;;;;8292638;28;20468;-69
2021/04/10 16:31:20;;;;;;;65.13;22.13;;;23.20;38.00;;;;;;8294067;28;20021;-69
2021/04/10 16:35:21;;;;;;;69.55;22.92;;;23.90;37.40;;;;;;8299121;28;20065;-69
2021/04/10 16:39:22;;;;;;;61.80;21.90;;;24.20;37.00;;;;;;8292313;28;20026;-69
2021/04/10 16:43:23;;;;;;;57.40;21.10;;;22.90;39.50;;;;;;8304459;28;20611;-69
2021/04/10 16:47:23;;;;;;;55.58;21.17;;;21.40;41.10;;;;;;8314435;28;20057;-68
2021/04/10 16:51:26;;;;;;;55.45;20.95;;;20.50;44.00;;;;;;8310011;28;20065;-69
2021/04/10 16:55:28;;;;;;;54.80;21.25;;;20.10;44.90;;;;;;8346899;28;20057;-69
2021/04/10 16:59:29;;;;;;;58.17;21.52;;;19.80;47.20;;;;;;8353819;28;20093;-69
2021/04/10 17:03:29;;;;;;;56.00;21.05;;;19.60;46.80;;;;;;8347315;28;20801;-69
2021/04/10 17:07:30;;;;;;;57.47;21.05;;;19.40;46.80;;;;;;8348201;28;20033;-68
2021/04/10 17:11:31;;;;;;;57.88;21.33;;;19.30;46.50;;;;;;8302785;28;20033;-70
2021/04/10 17:15:33;;;;;;;54.83;20.98;;;19.40;47.20;;;;;;8303280;28;20416;-69
2021/04/10 17:19:34;;;;;;;53.00;20.42;;;18.90;47.70;;;;;;8312042;28;20034;-69
2021/04/10 17:23:34;;;;;;;53.80;21.10;;;18.40;50.80;;;;;;8312062;28;20522;-70
2021/04/10 17:27:35;;;;;;;54.15;20.75;;;18.00;53.40;;;;;;8309377;28;20108;-69
2021/04/10 17:31:37;;;;;;;52.28;20.08;;;17.60;57.20;;;;;;8302297;28;20046;-69
2021/04/10 17:35:39;;;;;;;52.15;20.55;;;17.60;55.00;;;;;;8311277;28;20037;-69
2021/04/10 17:39:40;;;;;;;50.65;20.25;;;17.40;54.50;;;;;;8309064;28;20381;-69
2021/04/10 17:43:41;;;;;;;52.53;20.63;;;16.90;56.50;;;;;;8296632;28;20026;-69
2021/04/10 17:47:41;;;;;;;50.40;20.45;;;16.90;57.00;;;;;;8305920;28;20055;-69
2021/04/10 17:51:42;;;;;;;49.90;20.10;;;16.50;57.60;;;;;;8311892;28;20046;-69
2021/04/10 17:55:43;;;;;;;48.92;19.70;;;16.20;58.40;;;;;;8310763;28;20469;-68
2021/04/10 17:59:43;;;;;;;49.97;20.02;;;15.90;59.10;;;;;;8318963;28;20048;-69
2021/04/10 18:03:44;;;;;;;49.40;20.33;;;15.50;63.20;;;;;;8326528;28;20079;-69
2021/04/10 18:07:45;;;;;;;48.35;19.48;;;15.10;64.90;;;;;;8299423;28;20030;-69
2021/04/10 18:11:46;;;;;;;48.03;19.95;;;14.80;68.50;;;;;;8314751;28;20535;-69
2021/04/10 18:15:47;;;;;;;46.10;19.52;;;14.30;69.20;;;;;;8304212;28;20026;-69
2021/04/10 18:19:47;;;;;;;45.72;18.95;;;14.00;71.10;;;;;;8312659;28;20034;-69
2021/04/10 18:23:48;;;;;;;45.40;19.00;;;13.70;72.00;;;;;;8309223;28;20064;-69
2021/04/10 18:27:49;;;;;;;47.13;19.42;;;13.60;73.10;;;;;;8294200;28;20061;-69
2021/04/10 18:31:50;;;;;;;47.60;19.63;;;13.40;74.00;;;;;;8303519;28;20057;-68
2021/04/10 18:35:52;;;;;;;42.60;19.05;;;13.10;81.40;;;;;;8308260;28;20041;-68
2021/04/10 18:39:52;;;;;;;40.17;18.30;;;12.30;85.40;;;;;;8314555;28;20029;-69
2021/04/10 18:43:54;;;;;;;40.30;18.23;;;12.20;88.80;;;;;;8309387;28;20121;-69
2021/04/10 18:47:55;;;;;;;40.50;18.27;;;11.90;90.30;;;;;;8318729;28;20032;-69
2021/04/10 18:51:56;;;;;;;39.53;18.02;;;11.70;90.70;;;;;;8322688;28;20045;-69
2021/04/10 18:56:19;;;;;;;39.33;18.10;;;11.70;90.80;;;;;;8306360;28;20515;-69
2021/04/10 19:00:20;;;;;;;38.65;18.15;;;11.70;91.60;;;;;;8308732;28;20036;-69
2021/04/10 19:04:21;;;;;;;37.45;17.73;;;11.70;92.00;;;;;;8319854;28;20064;-69
2021/04/10 19:08:23;;;;;;;38.60;17.83;;;11.70;92.60;;;;;;8324593;28;20083;-69
2021/04/10 19:12:24;;;;;;;38.60;17.95;;;11.50;93.20;;;;;;8321767;28;20080;-69
2021/04/10 19:16:25;;;;;;;38.63;17.75;;;11.40;93.40;;;;;;8291361;28;20041;-69
2021/04/10 19:20:26;;;;;;;39.50;18.13;;;11.30;94.70;;;;;;8302221;28;20508;-69
2021/04/10 19:24:27;;;;;;;39.78;18.05;;;11.30;94.60;;;;;;8313409;28;20029;-69
2021/04/10 19:28:28;;;;;;;39.95;18.10;;;11.30;94.40;;;;;;8325330;28;20033;-68
2021/04/10 19:32:28;;;;;;;40.63;18.38;;;11.20;95.10;;;;;;8323331;28;20507;-69
2021/04/10 19:36:29;;;;;;;40.90;18.38;;;11.00;95.80;;;;;;8315827;28;20026;-69
2021/04/10 19:40:29;;;;;;;40.97;18.52;;;10.90;96.80;;;;;;8311130;28;20076;-69
2021/04/10 19:44:30;;;;;;;40.72;18.42;;;10.70;99.90;;;;;;8290429;28;20042;-69
2021/04/10 19:48:31;;;;;;;40.20;18.13;;;10.50;99.90;;;;;;8298957;28;20037;-70
2021/04/10 19:52:32;;;;;;;40.30;18.10;;;10.30;99.90;;;;;;8307045;28;20049;-69
2021/04/10 19:56:38;;;;;;;40.30;18.27;;;10.10;99.90;;;;;;8307803;28;20033;-70
2021/04/10 20:00:38;;;;;;;40.00;18.25;;;9.90;99.90;;;;;;8304752;28;20412;-69
2021/04/10 20:04:39;;;;;;;40.00;18.13;;;9.90;99.90;;;;;;8306538;28;20084;-69
2021/04/10 20:08:39;;;;;;;40.17;18.20;;;10.20;99.90;;;;;;8307215;28;20040;-69
2021/04/10 20:12:40;;;;;;;40.28;18.40;;;10.10;99.90;;;;;;8305394;28;20022;-69
2021/04/10 20:16:41;;;;;;;39.47;17.85;;;10.20;99.90;;;;;;8306904;28;20049;-68
2021/04/10 20:20:44;;;;;;;39.40;17.98;;;10.20;99.90;;;;;;8307503;28;20415;-69
2021/04/10 20:24:45;;;;;;;40.38;18.33;;;10.30;99.90;;;;;;8305181;28;20076;-69
2021/04/10 20:28:47;;;;;;;40.45;18.23;;;10.40;99.90;;;;;;8306732;28;20024;-69
2021/04/10 20:32:48;;;;;;;40.75;18.33;;;10.50;99.90;;;;;;8306265;28;20037;-69